sensor_id;sensor_type;location;lat;lon;timestamp;P1;durP1;ratioP1;P2;durP2;ratioP2
28760;SDS011;15917;50.014;8.352;2023-03-22T00:01:14;39.60;;;17.17;;
28760;SDS011;15917;50.014;8.352;2023-03-22T00:03:43;44.00;;;19.05;;
28760;SDS011;15917;50.014;8.352;2023-03-22T00:06:10;73.85;;;26.00;;
28760;SDS011;15917;50.014;8.352;2023-03-22T00:08:36;81.57;;;29.80;;
28760;SDS011;15917;50.014;8.352;2023-03-22T00:11:03;72.70;;;27.70;;
28760;SDS011;15917;50.014;8.352;2023-03-22T00:13:29;84.30;;;29.65;;
28760;SDS011;15917;50.014;8.352;2023-03-22T00:15:55;65.10;;;27.23;;
28760;SDS011;15917;50.014;8.352;2023-03-22T00:18:22;67.82;;;25.67;;
28760;SDS011;15917;50.014;8.352;2023-03-22T00:20:48;65.97;;;25.20;;
28760;SDS011;15917;50.014;8.352;2023-03-22T00:23:15;62.25;;;24.75;;
28760;SDS011;15917;50.014;8.352;2023-03-22T00:25:42;47.53;;;20.05;;
28760;SDS011;15917;50.014;8.352;2023-03-22T00:28:08;44.15;;;18.50;;
28760;SDS011;15917;50.014;8.352;2023-03-22T00:30:34;44.90;;;20.40;;
28760;SDS011;15917;50.014;8.352;2023-03-22T00:32:59;42.63;;;19.40;;
28760;SDS011;15917;50.014;8.352;2023-03-22T00:35:25;33.58;;;18.25;;
28760;SDS011;15917;50.014;8.352;2023-03-22T00:37:50;42.45;;;19.88;;
28760;SDS011;15917;50.014;8.352;2023-03-22T00:40:16;39.78;;;17.25;;
28760;SDS011;15917;50.014;8.352;2023-03-22T00:42:42;38.33;;;18.70;;
28760;SDS011;15917;50.014;8.352;2023-03-22T00:45:08;36.55;;;18.30;;
28760;SDS011;15917;50.014;8.352;2023-03-22T00:50:02;42.75;;;20.17;;
28760;SDS011;15917;50.014;8.352;2023-03-22T00:52:28;46.38;;;21.88;;
28760;SDS011;15917;50.014;8.352;2023-03-22T00:54:55;52.05;;;24.27;;
28760;SDS011;15917;50.014;8.352;2023-03-22T00:57:21;46.95;;;22.35;;
28760;SDS011;15917;50.014;8.352;2023-03-22T00:59:46;51.65;;;22.38;;
28760;SDS011;15917;50.014;8.352;2023-03-22T01:02:12;45.85;;;22.40;;
28760;SDS011;15917;50.014;8.352;2023-03-22T01:04:39;44.50;;;22.70;;
28760;SDS011;15917;50.014;8.352;2023-03-22T01:07:14;44.85;;;21.55;;
28760;SDS011;15917;50.014;8.352;2023-03-22T01:09:46;50.03;;;21.15;;
28760;SDS011;15917;50.014;8.352;2023-03-22T01:12:13;39.83;;;19.40;;
28760;SDS011;15917;50.014;8.352;2023-03-22T01:14:40;41.25;;;19.27;;
28760;SDS011;15917;50.014;8.352;2023-03-22T01:17:06;39.00;;;19.55;;
28760;SDS011;15917;50.014;8.352;2023-03-22T01:19:35;39.28;;;20.60;;
28760;SDS011;15917;50.014;8.352;2023-03-22T01:22:02;46.70;;;21.70;;
28760;SDS011;15917;50.014;8.352;2023-03-22T01:24:28;50.83;;;20.95;;
28760;SDS011;15917;50.014;8.352;2023-03-22T01:26:54;41.75;;;20.83;;
28760;SDS011;15917;50.014;8.352;2023-03-22T01:29:20;39.05;;;20.50;;
28760;SDS011;15917;50.014;8.352;2023-03-22T01:31:46;43.35;;;21.83;;
28760;SDS011;15917;50.014;8.352;2023-03-22T01:34:12;40.33;;;20.52;;
28760;SDS011;15917;50.014;8.352;2023-03-22T01:36:38;44.88;;;21.92;;
28760;SDS011;15917;50.014;8.352;2023-03-22T01:39:04;40.92;;;21.00;;
28760;SDS011;15917;50.014;8.352;2023-03-22T01:41:30;45.70;;;22.85;;
28760;SDS011;15917;50.014;8.352;2023-03-22T01:44:08;53.67;;;23.58;;
28760;SDS011;15917;50.014;8.352;2023-03-22T01:46:36;51.78;;;23.30;;
28760;SDS011;15917;50.014;8.352;2023-03-22T01:49:03;51.97;;;24.30;;
28760;SDS011;15917;50.014;8.352;2023-03-22T01:51:30;49.37;;;23.83;;
28760;SDS011;15917;50.014;8.352;2023-03-22T01:54:14;41.13;;;21.83;;
28760;SDS011;15917;50.014;8.352;2023-03-22T01:56:45;45.20;;;22.30;;
28760;SDS011;15917;50.014;8.352;2023-03-22T01:59:19;47.47;;;22.65;;
28760;SDS011;15917;50.014;8.352;2023-03-22T02:02:09;43.10;;;20.92;;
28760;SDS011;15917;50.014;8.352;2023-03-22T02:04:38;53.95;;;21.42;;
28760;SDS011;15917;50.014;8.352;2023-03-22T02:07:08;48.00;;;24.23;;
28760;SDS011;15917;50.014;8.352;2023-03-22T02:09:40;41.42;;;21.70;;
28760;SDS011;15917;50.014;8.352;2023-03-22T02:20:54;46.33;;;23.08;;
28760;SDS011;15917;50.014;8.352;2023-03-22T02:31:55;47.58;;;22.38;;
28760;SDS011;15917;50.014;8.352;2023-03-22T02:44:58;53.70;;;26.90;;
28760;SDS011;15917;50.014;8.352;2023-03-22T02:50:23;52.25;;;25.55;;
28760;SDS011;15917;50.014;8.352;2023-03-22T02:53:04;47.95;;;23.80;;
28760;SDS011;15917;50.014;8.352;2023-03-22T02:55:44;49.40;;;23.30;;
28760;SDS011;15917;50.014;8.352;2023-03-22T02:58:20;52.50;;;25.17;;
28760;SDS011;15917;50.014;8.352;2023-03-22T03:01:02;50.80;;;24.50;;
28760;SDS011;15917;50.014;8.352;2023-03-22T03:03:32;53.72;;;24.52;;
28760;SDS011;15917;50.014;8.352;2023-03-22T03:06:09;51.40;;;24.17;;
28760;SDS011;15917;50.014;8.352;2023-03-22T03:08:37;49.05;;;24.17;;
28760;SDS011;15917;50.014;8.352;2023-03-22T03:11:04;52.60;;;25.52;;
28760;SDS011;15917;50.014;8.352;2023-03-22T03:13:31;52.35;;;25.30;;
28760;SDS011;15917;50.014;8.352;2023-03-22T03:15:57;52.00;;;24.85;;
28760;SDS011;15917;50.014;8.352;2023-03-22T03:21:20;51.33;;;23.20;;
28760;SDS011;15917;50.014;8.352;2023-03-22T03:29:25;51.90;;;24.63;;
28760;SDS011;15917;50.014;8.352;2023-03-22T03:31:55;53.75;;;24.73;;
28760;SDS011;15917;50.014;8.352;2023-03-22T03:34:37;50.90;;;24.20;;
28760;SDS011;15917;50.014;8.352;2023-03-22T03:37:17;49.05;;;24.33;;
28760;SDS011;15917;50.014;8.352;2023-03-22T03:39:51;43.58;;;22.05;;
28760;SDS011;15917;50.014;8.352;2023-03-22T03:42:24;41.65;;;22.25;;
28760;SDS011;15917;50.014;8.352;2023-03-22T03:44:52;53.92;;;23.88;;
28760;SDS011;15917;50.014;8.352;2023-03-22T03:47:18;39.53;;;23.00;;
28760;SDS011;15917;50.014;8.352;2023-03-22T03:49:45;36.67;;;20.35;;
28760;SDS011;15917;50.014;8.352;2023-03-22T03:52:11;38.80;;;22.27;;
28760;SDS011;15917;50.014;8.352;2023-03-22T03:54:37;37.55;;;21.13;;
28760;SDS011;15917;50.014;8.352;2023-03-22T03:57:06;37.03;;;21.67;;
28760;SDS011;15917;50.014;8.352;2023-03-22T03:59:32;60.35;;;22.65;;
28760;SDS011;15917;50.014;8.352;2023-03-22T04:02:02;37.45;;;22.20;;
28760;SDS011;15917;50.014;8.352;2023-03-22T04:04:31;40.13;;;24.20;;
28760;SDS011;15917;50.014;8.352;2023-03-22T04:07:00;37.13;;;22.35;;
28760;SDS011;15917;50.014;8.352;2023-03-22T04:09:33;47.20;;;23.30;;
28760;SDS011;15917;50.014;8.352;2023-03-22T04:12:19;33.78;;;20.75;;
28760;SDS011;15917;50.014;8.352;2023-03-22T04:15:04;45.10;;;22.05;;
28760;SDS011;15917;50.014;8.352;2023-03-22T04:17:31;52.25;;;21.40;;
28760;SDS011;15917;50.014;8.352;2023-03-22T04:19:57;41.70;;;21.45;;
28760;SDS011;15917;50.014;8.352;2023-03-22T04:22:22;54.80;;;23.00;;
28760;SDS011;15917;50.014;8.352;2023-03-22T04:24:49;60.90;;;23.45;;
28760;SDS011;15917;50.014;8.352;2023-03-22T04:27:16;40.13;;;23.15;;
28760;SDS011;15917;50.014;8.352;2023-03-22T04:29:57;52.75;;;23.05;;
28760;SDS011;15917;50.014;8.352;2023-03-22T04:32:54;50.92;;;23.15;;
28760;SDS011;15917;50.014;8.352;2023-03-22T04:35:27;110.18;;;22.10;;
28760;SDS011;15917;50.014;8.352;2023-03-22T04:37:53;126.35;;;23.33;;
28760;SDS011;15917;50.014;8.352;2023-03-22T04:40:20;49.28;;;23.85;;
28760;SDS011;15917;50.014;8.352;2023-03-22T04:42:54;79.38;;;23.40;;
28760;SDS011;15917;50.014;8.352;2023-03-22T04:45:33;37.97;;;22.42;;
28760;SDS011;15917;50.014;8.352;2023-03-22T04:48:01;39.17;;;22.17;;
28760;SDS011;15917;50.014;8.352;2023-03-22T04:50:28;39.92;;;21.27;;
28760;SDS011;15917;50.014;8.352;2023-03-22T04:52:58;33.63;;;20.50;;
28760;SDS011;15917;50.014;8.352;2023-03-22T04:55:24;33.15;;;21.05;;
28760;SDS011;15917;50.014;8.352;2023-03-22T04:57:51;36.78;;;21.75;;
28760;SDS011;15917;50.014;8.352;2023-03-22T05:00:20;34.65;;;20.75;;
28760;SDS011;15917;50.014;8.352;2023-03-22T05:02:47;33.50;;;20.42;;
28760;SDS011;15917;50.014;8.352;2023-03-22T05:05:20;39.80;;;21.83;;
28760;SDS011;15917;50.014;8.352;2023-03-22T05:07:47;36.42;;;21.35;;
28760;SDS011;15917;50.014;8.352;2023-03-22T05:10:13;51.53;;;21.58;;
28760;SDS011;15917;50.014;8.352;2023-03-22T05:12:39;35.60;;;20.60;;
28760;SDS011;15917;50.014;8.352;2023-03-22T05:15:21;36.47;;;21.65;;
28760;SDS011;15917;50.014;8.352;2023-03-22T05:17:49;38.13;;;22.70;;
28760;SDS011;15917;50.014;8.352;2023-03-22T05:20:14;36.83;;;21.73;;
28760;SDS011;15917;50.014;8.352;2023-03-22T05:22:45;33.88;;;21.83;;
28760;SDS011;15917;50.014;8.352;2023-03-22T05:25:15;33.20;;;20.95;;
28760;SDS011;15917;50.014;8.352;2023-03-22T05:27:44;33.33;;;20.13;;
28760;SDS011;15917;50.014;8.352;2023-03-22T05:30:32;39.60;;;22.40;;
28760;SDS011;15917;50.014;8.352;2023-03-22T05:33:14;39.25;;;22.88;;
28760;SDS011;15917;50.014;8.352;2023-03-22T05:35:44;43.60;;;25.33;;
28760;SDS011;15917;50.014;8.352;2023-03-22T05:38:10;40.58;;;24.10;;
28760;SDS011;15917;50.014;8.352;2023-03-22T05:40:39;43.83;;;21.77;;
28760;SDS011;15917;50.014;8.352;2023-03-22T05:43:05;44.30;;;23.23;;
28760;SDS011;15917;50.014;8.352;2023-03-22T05:45:31;45.20;;;22.40;;
28760;SDS011;15917;50.014;8.352;2023-03-22T05:48:27;44.15;;;22.60;;
28760;SDS011;15917;50.014;8.352;2023-03-22T05:50:52;43.90;;;21.83;;
28760;SDS011;15917;50.014;8.352;2023-03-22T05:53:18;36.85;;;20.08;;
28760;SDS011;15917;50.014;8.352;2023-03-22T05:55:49;37.17;;;19.83;;
28760;SDS011;15917;50.014;8.352;2023-03-22T05:58:14;42.00;;;20.42;;
28760;SDS011;15917;50.014;8.352;2023-03-22T06:00:44;33.83;;;17.50;;
28760;SDS011;15917;50.014;8.352;2023-03-22T06:03:19;38.25;;;19.55;;
28760;SDS011;15917;50.014;8.352;2023-03-22T06:06:08;38.78;;;19.67;;
28760;SDS011;15917;50.014;8.352;2023-03-22T06:08:57;32.63;;;18.77;;
28760;SDS011;15917;50.014;8.352;2023-03-22T06:11:23;36.58;;;19.77;;
28760;SDS011;15917;50.014;8.352;2023-03-22T06:13:50;46.13;;;18.85;;
28760;SDS011;15917;50.014;8.352;2023-03-22T06:16:18;33.65;;;19.30;;
28760;SDS011;15917;50.014;8.352;2023-03-22T06:18:43;36.53;;;19.88;;
28760;SDS011;15917;50.014;8.352;2023-03-22T06:21:11;38.92;;;19.77;;
28760;SDS011;15917;50.014;8.352;2023-03-22T06:23:36;45.25;;;20.55;;
28760;SDS011;15917;50.014;8.352;2023-03-22T06:26:02;36.17;;;18.92;;
28760;SDS011;15917;50.014;8.352;2023-03-22T06:28:29;34.50;;;19.75;;
28760;SDS011;15917;50.014;8.352;2023-03-22T06:30:56;43.23;;;19.17;;
28760;SDS011;15917;50.014;8.352;2023-03-22T06:33:40;34.22;;;15.98;;
28760;SDS011;15917;50.014;8.352;2023-03-22T06:36:18;37.07;;;18.37;;
28760;SDS011;15917;50.014;8.352;2023-03-22T06:39:01;44.30;;;18.45;;
28760;SDS011;15917;50.014;8.352;2023-03-22T06:41:29;31.58;;;18.00;;
28760;SDS011;15917;50.014;8.352;2023-03-22T06:43:55;28.60;;;17.27;;
28760;SDS011;15917;50.014;8.352;2023-03-22T06:46:35;30.77;;;16.63;;
28760;SDS011;15917;50.014;8.352;2023-03-22T06:49:10;24.27;;;15.07;;
28760;SDS011;15917;50.014;8.352;2023-03-22T06:51:35;31.80;;;15.10;;
28760;SDS011;15917;50.014;8.352;2023-03-22T06:54:01;27.65;;;15.00;;
28760;SDS011;15917;50.014;8.352;2023-03-22T06:56:27;28.23;;;15.93;;
28760;SDS011;15917;50.014;8.352;2023-03-22T06:58:53;27.48;;;15.00;;
28760;SDS011;15917;50.014;8.352;2023-03-22T07:01:19;28.73;;;16.20;;
28760;SDS011;15917;50.014;8.352;2023-03-22T07:03:45;30.52;;;15.35;;
28760;SDS011;15917;50.014;8.352;2023-03-22T07:06:13;29.10;;;15.38;;
28760;SDS011;15917;50.014;8.352;2023-03-22T07:08:43;28.83;;;15.70;;
28760;SDS011;15917;50.014;8.352;2023-03-22T07:11:11;29.70;;;16.33;;
28760;SDS011;15917;50.014;8.352;2023-03-22T07:13:37;29.70;;;16.80;;
28760;SDS011;15917;50.014;8.352;2023-03-22T07:16:08;29.63;;;16.38;;
28760;SDS011;15917;50.014;8.352;2023-03-22T07:18:41;28.17;;;16.17;;
28760;SDS011;15917;50.014;8.352;2023-03-22T07:21:08;29.20;;;16.15;;
28760;SDS011;15917;50.014;8.352;2023-03-22T07:23:36;29.20;;;15.98;;
28760;SDS011;15917;50.014;8.352;2023-03-22T07:26:07;30.38;;;14.55;;
28760;SDS011;15917;50.014;8.352;2023-03-22T07:28:35;26.50;;;14.65;;
28760;SDS011;15917;50.014;8.352;2023-03-22T07:31:06;24.75;;;13.75;;
28760;SDS011;15917;50.014;8.352;2023-03-22T07:34:04;17.92;;;10.88;;
28760;SDS011;15917;50.014;8.352;2023-03-22T07:36:39;20.42;;;11.30;;
28760;SDS011;15917;50.014;8.352;2023-03-22T07:39:08;16.55;;;10.88;;
28760;SDS011;15917;50.014;8.352;2023-03-22T07:41:38;24.15;;;12.05;;
28760;SDS011;15917;50.014;8.352;2023-03-22T07:44:22;23.17;;;11.23;;
28760;SDS011;15917;50.014;8.352;2023-03-22T07:47:10;21.58;;;11.43;;
28760;SDS011;15917;50.014;8.352;2023-03-22T07:49:53;22.98;;;11.40;;
28760;SDS011;15917;50.014;8.352;2023-03-22T07:52:30;19.88;;;12.85;;
28760;SDS011;15917;50.014;8.352;2023-03-22T07:54:56;21.15;;;11.90;;
28760;SDS011;15917;50.014;8.352;2023-03-22T07:57:22;23.02;;;11.40;;
28760;SDS011;15917;50.014;8.352;2023-03-22T07:59:54;24.23;;;12.10;;
28760;SDS011;15917;50.014;8.352;2023-03-22T08:02:22;24.88;;;11.10;;
28760;SDS011;15917;50.014;8.352;2023-03-22T08:04:51;17.58;;;9.10;;
28760;SDS011;15917;50.014;8.352;2023-03-22T08:07:36;20.20;;;10.45;;
28760;SDS011;15917;50.014;8.352;2023-03-22T08:10:03;22.90;;;9.80;;
28760;SDS011;15917;50.014;8.352;2023-03-22T08:12:29;16.52;;;9.35;;
28760;SDS011;15917;50.014;8.352;2023-03-22T08:15:04;14.27;;;8.20;;
28760;SDS011;15917;50.014;8.352;2023-03-22T08:17:32;16.85;;;8.85;;
28760;SDS011;15917;50.014;8.352;2023-03-22T08:19:58;20.67;;;8.38;;
28760;SDS011;15917;50.014;8.352;2023-03-22T08:22:39;16.45;;;8.50;;
28760;SDS011;15917;50.014;8.352;2023-03-22T08:28:03;16.63;;;7.90;;
28760;SDS011;15917;50.014;8.352;2023-03-22T08:30:30;14.27;;;7.80;;
28760;SDS011;15917;50.014;8.352;2023-03-22T08:32:56;16.85;;;7.97;;
28760;SDS011;15917;50.014;8.352;2023-03-22T08:35:21;19.10;;;8.32;;
28760;SDS011;15917;50.014;8.352;2023-03-22T08:37:51;28.23;;;7.80;;
28760;SDS011;15917;50.014;8.352;2023-03-22T08:40:18;16.67;;;7.53;;
28760;SDS011;15917;50.014;8.352;2023-03-22T08:42:49;16.17;;;7.28;;
28760;SDS011;15917;50.014;8.352;2023-03-22T08:45:16;14.30;;;7.50;;
28760;SDS011;15917;50.014;8.352;2023-03-22T08:47:48;17.55;;;7.50;;
28760;SDS011;15917;50.014;8.352;2023-03-22T08:52:48;19.80;;;8.27;;
28760;SDS011;15917;50.014;8.352;2023-03-22T08:55:22;19.33;;;8.38;;
28760;SDS011;15917;50.014;8.352;2023-03-22T08:58:20;16.92;;;8.63;;
28760;SDS011;15917;50.014;8.352;2023-03-22T09:01:16;17.85;;;8.30;;
28760;SDS011;15917;50.014;8.352;2023-03-22T09:03:54;15.02;;;8.00;;
28760;SDS011;15917;50.014;8.352;2023-03-22T09:06:20;13.32;;;5.68;;
28760;SDS011;15917;50.014;8.352;2023-03-22T09:08:46;9.07;;;5.22;;
28760;SDS011;15917;50.014;8.352;2023-03-22T09:11:18;12.90;;;5.15;;
28760;SDS011;15917;50.014;8.352;2023-03-22T09:13:46;11.90;;;3.63;;
28760;SDS011;15917;50.014;8.352;2023-03-22T09:16:12;5.15;;;3.30;;
28760;SDS011;15917;50.014;8.352;2023-03-22T09:18:38;14.98;;;3.28;;
28760;SDS011;15917;50.014;8.352;2023-03-22T09:21:11;6.20;;;2.92;;
28760;SDS011;15917;50.014;8.352;2023-03-22T09:24:03;16.08;;;2.55;;
28760;SDS011;15917;50.014;8.352;2023-03-22T09:26:38;12.57;;;2.22;;
28760;SDS011;15917;50.014;8.352;2023-03-22T09:29:04;9.20;;;2.00;;
28760;SDS011;15917;50.014;8.352;2023-03-22T09:31:31;4.78;;;2.05;;
28760;SDS011;15917;50.014;8.352;2023-03-22T09:34:11;9.15;;;2.25;;
28760;SDS011;15917;50.014;8.352;2023-03-22T09:36:37;11.93;;;2.28;;
28760;SDS011;15917;50.014;8.352;2023-03-22T09:39:02;8.23;;;2.60;;
28760;SDS011;15917;50.014;8.352;2023-03-22T09:41:43;11.88;;;3.97;;
28760;SDS011;15917;50.014;8.352;2023-03-22T09:44:26;12.63;;;3.72;;
28760;SDS011;15917;50.014;8.352;2023-03-22T09:46:59;5.43;;;2.03;;
28760;SDS011;15917;50.014;8.352;2023-03-22T09:49:29;9.63;;;2.63;;
28760;SDS011;15917;50.014;8.352;2023-03-22T09:52:00;7.28;;;1.92;;
28760;SDS011;15917;50.014;8.352;2023-03-22T09:54:28;8.88;;;2.00;;
28760;SDS011;15917;50.014;8.352;2023-03-22T09:56:57;7.03;;;2.10;;
28760;SDS011;15917;50.014;8.352;2023-03-22T09:59:43;3.90;;;2.17;;
28760;SDS011;15917;50.014;8.352;2023-03-22T10:08:07;6.85;;;2.03;;
28760;SDS011;15917;50.014;8.352;2023-03-22T10:10:56;7.38;;;1.70;;
28760;SDS011;15917;50.014;8.352;2023-03-22T10:16:01;11.20;;;3.83;;
28760;SDS011;15917;50.014;8.352;2023-03-22T10:18:32;10.70;;;2.70;;
28760;SDS011;15917;50.014;8.352;2023-03-22T10:21:04;8.05;;;2.22;;
28760;SDS011;15917;50.014;8.352;2023-03-22T10:24:08;13.52;;;2.70;;
28760;SDS011;15917;50.014;8.352;2023-03-22T10:26:43;5.47;;;2.50;;
28760;SDS011;15917;50.014;8.352;2023-03-22T10:29:18;4.15;;;1.83;;
28760;SDS011;15917;50.014;8.352;2023-03-22T10:31:51;7.15;;;1.67;;
28760;SDS011;15917;50.014;8.352;2023-03-22T10:34:19;5.90;;;1.73;;
28760;SDS011;15917;50.014;8.352;2023-03-22T10:36:47;2.80;;;1.05;;
28760;SDS011;15917;50.014;8.352;2023-03-22T10:39:20;7.45;;;1.42;;
28760;SDS011;15917;50.014;8.352;2023-03-22T10:41:54;5.60;;;1.40;;
28760;SDS011;15917;50.014;8.352;2023-03-22T10:44:21;7.75;;;1.40;;
28760;SDS011;15917;50.014;8.352;2023-03-22T10:46:49;4.78;;;1.23;;
28760;SDS011;15917;50.014;8.352;2023-03-22T10:49:25;4.32;;;1.20;;
28760;SDS011;15917;50.014;8.352;2023-03-22T10:56:50;5.32;;;1.45;;
28760;SDS011;15917;50.014;8.352;2023-03-22T11:04:48;2.97;;;1.30;;
28760;SDS011;15917;50.014;8.352;2023-03-22T11:13:21;1.35;;;1.00;;
28760;SDS011;15917;50.014;8.352;2023-03-22T11:15:34;3.33;;;1.45;;
28760;SDS011;15917;50.014;8.352;2023-03-22T11:18:06;1.35;;;0.85;;
28760;SDS011;15917;50.014;8.352;2023-03-22T11:20:38;2.20;;;1.10;;
28760;SDS011;15917;50.014;8.352;2023-03-22T11:23:04;11.27;;;1.20;;
28760;SDS011;15917;50.014;8.352;2023-03-22T11:25:31;4.35;;;1.23;;
28760;SDS011;15917;50.014;8.352;2023-03-22T11:30:29;4.55;;;1.08;;
28760;SDS011;15917;50.014;8.352;2023-03-22T11:33:15;3.50;;;1.02;;
28760;SDS011;15917;50.014;8.352;2023-03-22T11:35:44;1.90;;;0.95;;
28760;SDS011;15917;50.014;8.352;2023-03-22T11:41:00;3.20;;;1.27;;
28760;SDS011;15917;50.014;8.352;2023-03-22T11:46:02;0.98;;;0.80;;
28760;SDS011;15917;50.014;8.352;2023-03-22T11:48:30;8.23;;;0.90;;
28760;SDS011;15917;50.014;8.352;2023-03-22T11:50:58;6.00;;;1.20;;
28760;SDS011;15917;50.014;8.352;2023-03-22T11:53:30;3.38;;;0.90;;
28760;SDS011;15917;50.014;8.352;2023-03-22T11:55:59;3.10;;;1.02;;
28760;SDS011;15917;50.014;8.352;2023-03-22T12:01:04;1.23;;;0.73;;
28760;SDS011;15917;50.014;8.352;2023-03-22T12:03:32;2.72;;;1.25;;
28760;SDS011;15917;50.014;8.352;2023-03-22T12:06:01;1.63;;;1.02;;
28760;SDS011;15917;50.014;8.352;2023-03-22T12:11:00;3.88;;;1.30;;
28760;SDS011;15917;50.014;8.352;2023-03-22T12:13:44;1.95;;;1.27;;
28760;SDS011;15917;50.014;8.352;2023-03-22T12:16:14;3.05;;;0.98;;
28760;SDS011;15917;50.014;8.352;2023-03-22T12:18:48;2.45;;;1.05;;
28760;SDS011;15917;50.014;8.352;2023-03-22T12:21:24;2.33;;;0.93;;
28760;SDS011;15917;50.014;8.352;2023-03-22T12:23:49;2.75;;;1.20;;
28760;SDS011;15917;50.014;8.352;2023-03-22T12:26:19;1.10;;;0.73;;
28760;SDS011;15917;50.014;8.352;2023-03-22T12:33:57;1.52;;;0.85;;
28760;SDS011;15917;50.014;8.352;2023-03-22T12:36:29;2.38;;;1.10;;
28760;SDS011;15917;50.014;8.352;2023-03-22T12:39:05;1.92;;;1.10;;
28760;SDS011;15917;50.014;8.352;2023-03-22T12:41:36;2.45;;;0.90;;
28760;SDS011;15917;50.014;8.352;2023-03-22T12:44:23;6.65;;;1.10;;
28760;SDS011;15917;50.014;8.352;2023-03-22T12:46:52;3.47;;;0.80;;
28760;SDS011;15917;50.014;8.352;2023-03-22T12:51:54;4.45;;;1.10;;
28760;SDS011;15917;50.014;8.352;2023-03-22T12:54:24;3.20;;;0.80;;
28760;SDS011;15917;50.014;8.352;2023-03-22T12:56:51;7.75;;;0.80;;
28760;SDS011;15917;50.014;8.352;2023-03-22T12:59:19;2.25;;;0.90;;
28760;SDS011;15917;50.014;8.352;2023-03-22T13:01:58;2.90;;;1.20;;
28760;SDS011;15917;50.014;8.352;2023-03-22T13:04:45;1.67;;;0.70;;
28760;SDS011;15917;50.014;8.352;2023-03-22T13:07:16;1.20;;;0.60;;
28760;SDS011;15917;50.014;8.352;2023-03-22T13:15:35;3.80;;;0.70;;
28760;SDS011;15917;50.014;8.352;2023-03-22T13:18:13;2.90;;;0.80;;
28760;SDS011;15917;50.014;8.352;2023-03-22T13:23:53;4.40;;;0.60;;
28760;SDS011;15917;50.014;8.352;2023-03-22T13:29:14;1.50;;;0.88;;
28760;SDS011;15917;50.014;8.352;2023-03-22T13:32:02;2.42;;;0.80;;
28760;SDS011;15917;50.014;8.352;2023-03-22T13:34:31;6.80;;;0.90;;
28760;SDS011;15917;50.014;8.352;2023-03-22T13:37:23;1.15;;;0.85;;
28760;SDS011;15917;50.014;8.352;2023-03-22T13:39:59;2.10;;;1.90;;
28760;SDS011;15917;50.014;8.352;2023-03-22T13:42:35;2.50;;;0.85;;
28760;SDS011;15917;50.014;8.352;2023-03-22T13:45:06;2.47;;;0.97;;
28760;SDS011;15917;50.014;8.352;2023-03-22T14:01:04;5.25;;;1.02;;
28760;SDS011;15917;50.014;8.352;2023-03-22T14:03:50;4.72;;;0.85;;
28760;SDS011;15917;50.014;8.352;2023-03-22T14:06:20;4.05;;;1.10;;
28760;SDS011;15917;50.014;8.352;2023-03-22T14:08:57;1.30;;;1.00;;
28760;SDS011;15917;50.014;8.352;2023-03-22T14:14:18;2.53;;;1.40;;
28760;SDS011;15917;50.014;8.352;2023-03-22T14:17:04;10.60;;;2.08;;
28760;SDS011;15917;50.014;8.352;2023-03-22T14:19:45;1.83;;;0.98;;
28760;SDS011;15917;50.014;8.352;2023-03-22T14:22:12;5.47;;;1.20;;
28760;SDS011;15917;50.014;8.352;2023-03-22T14:24:44;5.25;;;1.27;;
28760;SDS011;15917;50.014;8.352;2023-03-22T14:27:10;3.58;;;0.90;;
28760;SDS011;15917;50.014;8.352;2023-03-22T14:29:43;3.88;;;1.10;;
28760;SDS011;15917;50.014;8.352;2023-03-22T14:32:14;1.65;;;0.80;;
28760;SDS011;15917;50.014;8.352;2023-03-22T14:35:07;1.20;;;0.85;;
28760;SDS011;15917;50.014;8.352;2023-03-22T14:37:35;2.53;;;0.98;;
28760;SDS011;15917;50.014;8.352;2023-03-22T14:40:11;2.42;;;0.65;;
28760;SDS011;15917;50.014;8.352;2023-03-22T14:42:41;2.42;;;0.80;;
28760;SDS011;15917;50.014;8.352;2023-03-22T14:45:13;8.35;;;0.88;;
28760;SDS011;15917;50.014;8.352;2023-03-22T14:47:42;3.60;;;0.70;;
28760;SDS011;15917;50.014;8.352;2023-03-22T14:52:39;2.83;;;0.90;;
28760;SDS011;15917;50.014;8.352;2023-03-22T14:55:08;0.90;;;0.70;;
28760;SDS011;15917;50.014;8.352;2023-03-22T14:57:44;2.08;;;1.23;;
28760;SDS011;15917;50.014;8.352;2023-03-22T15:00:16;2.17;;;0.77;;
28760;SDS011;15917;50.014;8.352;2023-03-22T15:02:47;4.57;;;1.40;;
28760;SDS011;15917;50.014;8.352;2023-03-22T15:05:19;8.38;;;2.05;;
28760;SDS011;15917;50.014;8.352;2023-03-22T15:07:48;5.40;;;1.00;;
28760;SDS011;15917;50.014;8.352;2023-03-22T15:10:17;3.75;;;1.23;;
28760;SDS011;15917;50.014;8.352;2023-03-22T15:12:48;2.60;;;1.08;;
28760;SDS011;15917;50.014;8.352;2023-03-22T15:15:15;3.03;;;1.40;;
28760;SDS011;15917;50.014;8.352;2023-03-22T15:20:12;7.53;;;1.33;;
28760;SDS011;15917;50.014;8.352;2023-03-22T15:22:51;2.97;;;1.10;;
28760;SDS011;15917;50.014;8.352;2023-03-22T15:25:19;1.52;;;1.00;;
28760;SDS011;15917;50.014;8.352;2023-03-22T15:27:55;2.83;;;1.17;;
28760;SDS011;15917;50.014;8.352;2023-03-22T15:30:21;3.25;;;1.15;;
28760;SDS011;15917;50.014;8.352;2023-03-22T15:32:47;2.95;;;1.23;;
28760;SDS011;15917;50.014;8.352;2023-03-22T15:35:13;3.45;;;1.23;;
28760;SDS011;15917;50.014;8.352;2023-03-22T15:37:41;2.17;;;1.05;;
28760;SDS011;15917;50.014;8.352;2023-03-22T15:43:20;3.25;;;0.95;;
28760;SDS011;15917;50.014;8.352;2023-03-22T15:48:42;5.13;;;1.02;;
28760;SDS011;15917;50.014;8.352;2023-03-22T15:51:14;2.30;;;0.82;;
28760;SDS011;15917;50.014;8.352;2023-03-22T15:53:42;2.42;;;0.77;;
28760;SDS011;15917;50.014;8.352;2023-03-22T15:56:17;2.47;;;1.10;;
28760;SDS011;15917;50.014;8.352;2023-03-22T15:58:52;1.25;;;0.80;;
28760;SDS011;15917;50.014;8.352;2023-03-22T16:01:19;2.33;;;0.88;;
28760;SDS011;15917;50.014;8.352;2023-03-22T16:03:50;5.00;;;0.80;;
28760;SDS011;15917;50.014;8.352;2023-03-22T16:06:21;2.08;;;0.60;;
28760;SDS011;15917;50.014;8.352;2023-03-22T16:08:51;3.38;;;0.98;;
28760;SDS011;15917;50.014;8.352;2023-03-22T16:11:18;5.68;;;1.50;;
28760;SDS011;15917;50.014;8.352;2023-03-22T16:13:47;3.42;;;0.70;;
28760;SDS011;15917;50.014;8.352;2023-03-22T16:16:14;1.88;;;0.85;;
28760;SDS011;15917;50.014;8.352;2023-03-22T16:18:42;1.90;;;0.95;;
28760;SDS011;15917;50.014;8.352;2023-03-22T16:21:11;2.45;;;1.08;;
28760;SDS011;15917;50.014;8.352;2023-03-22T16:23:39;4.35;;;1.23;;
28760;SDS011;15917;50.014;8.352;2023-03-22T16:26:07;2.42;;;1.05;;
28760;SDS011;15917;50.014;8.352;2023-03-22T16:28:38;1.55;;;1.10;;
28760;SDS011;15917;50.014;8.352;2023-03-22T16:31:04;4.97;;;0.90;;
28760;SDS011;15917;50.014;8.352;2023-03-22T16:33:30;1.65;;;0.80;;
28760;SDS011;15917;50.014;8.352;2023-03-22T16:35:55;4.13;;;1.00;;
28760;SDS011;15917;50.014;8.352;2023-03-22T16:38:21;4.43;;;1.63;;
28760;SDS011;15917;50.014;8.352;2023-03-22T16:40:48;2.92;;;1.15;;
28760;SDS011;15917;50.014;8.352;2023-03-22T16:43:16;3.88;;;1.35;;
28760;SDS011;15917;50.014;8.352;2023-03-22T16:45:42;2.70;;;1.20;;
28760;SDS011;15917;50.014;8.352;2023-03-22T16:48:08;2.30;;;1.17;;
28760;SDS011;15917;50.014;8.352;2023-03-22T16:50:35;6.57;;;1.00;;
28760;SDS011;15917;50.014;8.352;2023-03-22T16:53:04;2.70;;;1.10;;
28760;SDS011;15917;50.014;8.352;2023-03-22T16:55:31;2.75;;;1.50;;
28760;SDS011;15917;50.014;8.352;2023-03-22T16:57:58;3.85;;;1.33;;
28760;SDS011;15917;50.014;8.352;2023-03-22T17:00:24;6.90;;;2.75;;
28760;SDS011;15917;50.014;8.352;2023-03-22T17:02:51;8.65;;;2.38;;
28760;SDS011;15917;50.014;8.352;2023-03-22T17:05:20;10.02;;;2.60;;
28760;SDS011;15917;50.014;8.352;2023-03-22T17:07:47;13.52;;;3.03;;